sensor_id;sensor_type;location;lat;lon;timestamp;P1;durP1;ratioP1;P2;durP2;ratioP2
19887;SDS011;10106;51.332;12.336;2022-11-15T00:01:42;13.53;;;6.80;;
19887;SDS011;10106;51.332;12.336;2022-11-15T00:04:08;13.17;;;6.90;;
19887;SDS011;10106;51.332;12.336;2022-11-15T00:06:35;17.57;;;6.90;;
19887;SDS011;10106;51.332;12.336;2022-11-15T00:09:01;12.27;;;6.57;;
19887;SDS011;10106;51.332;12.336;2022-11-15T00:11:27;10.63;;;6.00;;
19887;SDS011;10106;51.332;12.336;2022-11-15T00:13:56;19.10;;;8.20;;
19887;SDS011;10106;51.332;12.336;2022-11-15T00:16:23;15.47;;;7.50;;
19887;SDS011;10106;51.332;12.336;2022-11-15T00:18:49;11.50;;;6.50;;
19887;SDS011;10106;51.332;12.336;2022-11-15T00:21:15;13.27;;;6.57;;
19887;SDS011;10106;51.332;12.336;2022-11-15T00:23:42;15.77;;;6.87;;
19887;SDS011;10106;51.332;12.336;2022-11-15T00:26:10;12.97;;;6.63;;
19887;SDS011;10106;51.332;12.336;2022-11-15T00:28:37;10.17;;;6.50;;
19887;SDS011;10106;51.332;12.336;2022-11-15T00:31:04;11.37;;;6.13;;
19887;SDS011;10106;51.332;12.336;2022-11-15T00:33:31;12.00;;;6.30;;
19887;SDS011;10106;51.332;12.336;2022-11-15T00:36:05;18.10;;;7.37;;
19887;SDS011;10106;51.332;12.336;2022-11-15T00:38:34;11.83;;;6.20;;
19887;SDS011;10106;51.332;12.336;2022-11-15T00:41:02;8.10;;;4.60;;
19887;SDS011;10106;51.332;12.336;2022-11-15T00:43:29;10.40;;;5.80;;
19887;SDS011;10106;51.332;12.336;2022-11-15T00:45:54;9.90;;;5.47;;
19887;SDS011;10106;51.332;12.336;2022-11-15T00:48:20;10.30;;;6.27;;
19887;SDS011;10106;51.332;12.336;2022-11-15T00:50:46;12.07;;;6.20;;
19887;SDS011;10106;51.332;12.336;2022-11-15T00:53:12;16.03;;;6.10;;
19887;SDS011;10106;51.332;12.336;2022-11-15T00:55:38;12.30;;;6.40;;
19887;SDS011;10106;51.332;12.336;2022-11-15T00:58:04;9.87;;;5.50;;
19887;SDS011;10106;51.332;12.336;2022-11-15T01:00:29;12.67;;;5.83;;
19887;SDS011;10106;51.332;12.336;2022-11-15T01:02:55;9.20;;;5.47;;
19887;SDS011;10106;51.332;12.336;2022-11-15T01:05:21;11.00;;;6.70;;
19887;SDS011;10106;51.332;12.336;2022-11-15T01:07:47;19.60;;;6.60;;
19887;SDS011;10106;51.332;12.336;2022-11-15T01:10:16;11.60;;;5.80;;
19887;SDS011;10106;51.332;12.336;2022-11-15T01:12:42;12.30;;;5.00;;
19887;SDS011;10106;51.332;12.336;2022-11-15T01:15:08;11.33;;;6.27;;
19887;SDS011;10106;51.332;12.336;2022-11-15T01:17:34;12.17;;;7.20;;
19887;SDS011;10106;51.332;12.336;2022-11-15T01:19:59;14.10;;;5.90;;
19887;SDS011;10106;51.332;12.336;2022-11-15T01:22:25;13.20;;;5.83;;
19887;SDS011;10106;51.332;12.336;2022-11-15T01:24:51;12.70;;;6.87;;
19887;SDS011;10106;51.332;12.336;2022-11-15T01:27:17;11.27;;;6.07;;
19887;SDS011;10106;51.332;12.336;2022-11-15T01:29:42;13.77;;;6.80;;
19887;SDS011;10106;51.332;12.336;2022-11-15T01:32:08;14.50;;;5.60;;
19887;SDS011;10106;51.332;12.336;2022-11-15T01:34:34;18.00;;;6.83;;
19887;SDS011;10106;51.332;12.336;2022-11-15T01:37:00;12.17;;;6.57;;
19887;SDS011;10106;51.332;12.336;2022-11-15T01:39:25;10.20;;;5.87;;
19887;SDS011;10106;51.332;12.336;2022-11-15T01:41:51;14.17;;;6.63;;
19887;SDS011;10106;51.332;12.336;2022-11-15T01:47:15;12.00;;;5.90;;
19887;SDS011;10106;51.332;12.336;2022-11-15T01:49:57;14.90;;;5.87;;
19887;SDS011;10106;51.332;12.336;2022-11-15T01:52:31;12.40;;;5.60;;
19887;SDS011;10106;51.332;12.336;2022-11-15T01:55:07;13.23;;;6.10;;
19887;SDS011;10106;51.332;12.336;2022-11-15T01:57:37;11.20;;;6.47;;
19887;SDS011;10106;51.332;12.336;2022-11-15T02:00:04;9.00;;;5.20;;
19887;SDS011;10106;51.332;12.336;2022-11-15T02:02:30;9.30;;;5.30;;
19887;SDS011;10106;51.332;12.336;2022-11-15T02:04:57;15.10;;;5.87;;
19887;SDS011;10106;51.332;12.336;2022-11-15T02:07:23;12.33;;;6.10;;
19887;SDS011;10106;51.332;12.336;2022-11-15T02:09:49;13.40;;;5.70;;
19887;SDS011;10106;51.332;12.336;2022-11-15T02:12:17;12.67;;;6.10;;
19887;SDS011;10106;51.332;12.336;2022-11-15T02:14:47;15.67;;;5.93;;
19887;SDS011;10106;51.332;12.336;2022-11-15T02:20:27;11.90;;;5.40;;
19887;SDS011;10106;51.332;12.336;2022-11-15T02:23:09;9.53;;;5.60;;
19887;SDS011;10106;51.332;12.336;2022-11-15T02:42:56;10.03;;;5.67;;
19887;SDS011;10106;51.332;12.336;2022-11-15T02:45:48;21.43;;;5.90;;
19887;SDS011;10106;51.332;12.336;2022-11-15T02:48:19;12.13;;;6.30;;
19887;SDS011;10106;51.332;12.336;2022-11-15T02:50:47;13.70;;;6.97;;
19887;SDS011;10106;51.332;12.336;2022-11-15T02:53:14;12.40;;;5.40;;
19887;SDS011;10106;51.332;12.336;2022-11-15T02:55:49;12.30;;;6.30;;
19887;SDS011;10106;51.332;12.336;2022-11-15T03:07:18;10.30;;;5.07;;
19887;SDS011;10106;51.332;12.336;2022-11-15T03:10:02;11.40;;;5.90;;
19887;SDS011;10106;51.332;12.336;2022-11-15T03:12:42;14.73;;;6.57;;
19887;SDS011;10106;51.332;12.336;2022-11-15T03:15:33;11.10;;;6.03;;
19887;SDS011;10106;51.332;12.336;2022-11-15T03:18:15;13.00;;;4.50;;
19887;SDS011;10106;51.332;12.336;2022-11-15T03:20:48;10.17;;;5.80;;
19887;SDS011;10106;51.332;12.336;2022-11-15T03:23:15;10.43;;;5.13;;
19887;SDS011;10106;51.332;12.336;2022-11-15T03:25:43;10.10;;;5.50;;
19887;SDS011;10106;51.332;12.336;2022-11-15T03:28:13;9.93;;;5.40;;
19887;SDS011;10106;51.332;12.336;2022-11-15T03:30:54;11.03;;;5.80;;
19887;SDS011;10106;51.332;12.336;2022-11-15T03:33:21;9.60;;;5.97;;
19887;SDS011;10106;51.332;12.336;2022-11-15T03:35:47;14.70;;;6.17;;
19887;SDS011;10106;51.332;12.336;2022-11-15T03:46:16;9.93;;;5.57;;
19887;SDS011;10106;51.332;12.336;2022-11-15T03:49:01;21.43;;;6.73;;
19887;SDS011;10106;51.332;12.336;2022-11-15T03:52:02;14.07;;;5.93;;
19887;SDS011;10106;51.332;12.336;2022-11-15T03:54:29;14.27;;;5.23;;
19887;SDS011;10106;51.332;12.336;2022-11-15T03:56:55;7.63;;;5.10;;
19887;SDS011;10106;51.332;12.336;2022-11-15T03:59:21;13.13;;;6.30;;
19887;SDS011;10106;51.332;12.336;2022-11-15T04:01:47;13.90;;;7.10;;
19887;SDS011;10106;51.332;12.336;2022-11-15T04:04:12;9.60;;;4.80;;
19887;SDS011;10106;51.332;12.336;2022-11-15T04:06:38;15.13;;;5.90;;
19887;SDS011;10106;51.332;12.336;2022-11-15T04:09:04;10.53;;;5.17;;
19887;SDS011;10106;51.332;12.336;2022-11-15T04:11:30;13.37;;;7.20;;
19887;SDS011;10106;51.332;12.336;2022-11-15T04:13:55;10.90;;;6.20;;
19887;SDS011;10106;51.332;12.336;2022-11-15T04:16:21;8.80;;;4.93;;
19887;SDS011;10106;51.332;12.336;2022-11-15T04:18:47;9.17;;;4.63;;
19887;SDS011;10106;51.332;12.336;2022-11-15T04:21:35;9.83;;;5.27;;
19887;SDS011;10106;51.332;12.336;2022-11-15T04:24:19;6.70;;;4.70;;
19887;SDS011;10106;51.332;12.336;2022-11-15T04:26:45;7.93;;;4.30;;
19887;SDS011;10106;51.332;12.336;2022-11-15T04:29:10;6.87;;;4.80;;
19887;SDS011;10106;51.332;12.336;2022-11-15T04:31:54;7.20;;;4.53;;
19887;SDS011;10106;51.332;12.336;2022-11-15T04:34:20;19.30;;;6.23;;
19887;SDS011;10106;51.332;12.336;2022-11-15T04:39:13;11.20;;;5.17;;
19887;SDS011;10106;51.332;12.336;2022-11-15T04:41:39;10.70;;;4.40;;
19887;SDS011;10106;51.332;12.336;2022-11-15T04:44:05;14.37;;;6.10;;
19887;SDS011;10106;51.332;12.336;2022-11-15T04:46:30;10.37;;;5.73;;
19887;SDS011;10106;51.332;12.336;2022-11-15T04:48:56;8.97;;;4.20;;
19887;SDS011;10106;51.332;12.336;2022-11-15T04:51:22;13.67;;;5.17;;
19887;SDS011;10106;51.332;12.336;2022-11-15T04:53:48;9.20;;;5.40;;
19887;SDS011;10106;51.332;12.336;2022-11-15T04:56:13;12.57;;;5.27;;
19887;SDS011;10106;51.332;12.336;2022-11-15T04:58:39;10.20;;;5.97;;
19887;SDS011;10106;51.332;12.336;2022-11-15T05:01:12;10.37;;;5.27;;
19887;SDS011;10106;51.332;12.336;2022-11-15T05:03:40;10.03;;;5.33;;
19887;SDS011;10106;51.332;12.336;2022-11-15T05:06:24;8.70;;;5.43;;
19887;SDS011;10106;51.332;12.336;2022-11-15T05:08:50;14.10;;;6.03;;
19887;SDS011;10106;51.332;12.336;2022-11-15T05:11:16;11.87;;;4.87;;
19887;SDS011;10106;51.332;12.336;2022-11-15T05:13:41;13.30;;;6.17;;
19887;SDS011;10106;51.332;12.336;2022-11-15T05:16:07;8.47;;;4.80;;
19887;SDS011;10106;51.332;12.336;2022-11-15T05:18:36;9.47;;;5.73;;
19887;SDS011;10106;51.332;12.336;2022-11-15T05:21:05;12.70;;;6.70;;
19887;SDS011;10106;51.332;12.336;2022-11-15T05:23:32;13.80;;;5.10;;
19887;SDS011;10106;51.332;12.336;2022-11-15T05:26:01;9.33;;;5.67;;
19887;SDS011;10106;51.332;12.336;2022-11-15T05:28:27;11.60;;;4.90;;
19887;SDS011;10106;51.332;12.336;2022-11-15T05:30:53;13.50;;;5.63;;
19887;SDS011;10106;51.332;12.336;2022-11-15T05:33:43;13.53;;;6.00;;
19887;SDS011;10106;51.332;12.336;2022-11-15T05:36:21;10.53;;;5.43;;
19887;SDS011;10106;51.332;12.336;2022-11-15T05:38:53;10.57;;;4.90;;
19887;SDS011;10106;51.332;12.336;2022-11-15T05:41:20;9.27;;;6.00;;
19887;SDS011;10106;51.332;12.336;2022-11-15T05:43:51;13.53;;;6.80;;
19887;SDS011;10106;51.332;12.336;2022-11-15T05:46:17;11.70;;;5.50;;
19887;SDS011;10106;51.332;12.336;2022-11-15T05:48:44;8.90;;;5.40;;
19887;SDS011;10106;51.332;12.336;2022-11-15T05:51:13;8.10;;;5.70;;
19887;SDS011;10106;51.332;12.336;2022-11-15T05:53:41;9.47;;;5.23;;
19887;SDS011;10106;51.332;12.336;2022-11-15T05:56:07;10.30;;;5.10;;
19887;SDS011;10106;51.332;12.336;2022-11-15T05:58:34;9.30;;;5.23;;
19887;SDS011;10106;51.332;12.336;2022-11-15T06:06:12;14.27;;;6.50;;
19887;SDS011;10106;51.332;12.336;2022-11-15T06:08:38;7.63;;;4.60;;
19887;SDS011;10106;51.332;12.336;2022-11-15T06:11:06;9.73;;;5.70;;
19887;SDS011;10106;51.332;12.336;2022-11-15T06:13:32;12.23;;;6.43;;
19887;SDS011;10106;51.332;12.336;2022-11-15T06:15:59;15.30;;;6.00;;
19887;SDS011;10106;51.332;12.336;2022-11-15T06:18:25;14.13;;;5.70;;
19887;SDS011;10106;51.332;12.336;2022-11-15T06:20:50;11.10;;;5.77;;
19887;SDS011;10106;51.332;12.336;2022-11-15T06:23:16;10.07;;;5.97;;
19887;SDS011;10106;51.332;12.336;2022-11-15T06:25:42;9.77;;;5.57;;
19887;SDS011;10106;51.332;12.336;2022-11-15T06:28:08;11.77;;;5.90;;
19887;SDS011;10106;51.332;12.336;2022-11-15T06:30:34;14.00;;;5.53;;
19887;SDS011;10106;51.332;12.336;2022-11-15T06:33:00;10.37;;;4.60;;
19887;SDS011;10106;51.332;12.336;2022-11-15T06:35:27;11.47;;;4.87;;
19887;SDS011;10106;51.332;12.336;2022-11-15T06:37:53;8.57;;;5.17;;
19887;SDS011;10106;51.332;12.336;2022-11-15T06:40:18;10.53;;;5.47;;
19887;SDS011;10106;51.332;12.336;2022-11-15T06:42:47;13.50;;;6.07;;
19887;SDS011;10106;51.332;12.336;2022-11-15T06:45:13;8.17;;;5.03;;
19887;SDS011;10106;51.332;12.336;2022-11-15T06:47:45;10.57;;;4.83;;
19887;SDS011;10106;51.332;12.336;2022-11-15T06:50:11;11.33;;;5.87;;
19887;SDS011;10106;51.332;12.336;2022-11-15T06:52:37;10.93;;;5.30;;
19887;SDS011;10106;51.332;12.336;2022-11-15T06:55:03;10.30;;;5.93;;
19887;SDS011;10106;51.332;12.336;2022-11-15T06:57:29;8.87;;;5.13;;
19887;SDS011;10106;51.332;12.336;2022-11-15T06:59:54;5.73;;;4.00;;
19887;SDS011;10106;51.332;12.336;2022-11-15T07:02:20;6.63;;;4.70;;
19887;SDS011;10106;51.332;12.336;2022-11-15T07:04:46;8.60;;;4.90;;
19887;SDS011;10106;51.332;12.336;2022-11-15T07:07:11;14.50;;;6.20;;
19887;SDS011;10106;51.332;12.336;2022-11-15T07:09:37;9.30;;;5.20;;
19887;SDS011;10106;51.332;12.336;2022-11-15T07:12:03;7.60;;;4.60;;
19887;SDS011;10106;51.332;12.336;2022-11-15T07:14:28;10.30;;;5.20;;
19887;SDS011;10106;51.332;12.336;2022-11-15T07:16:54;6.70;;;4.50;;
19887;SDS011;10106;51.332;12.336;2022-11-15T07:19:20;11.33;;;4.50;;
19887;SDS011;10106;51.332;12.336;2022-11-15T07:21:45;11.63;;;5.70;;
19887;SDS011;10106;51.332;12.336;2022-11-15T07:24:11;11.70;;;5.20;;
19887;SDS011;10106;51.332;12.336;2022-11-15T07:26:37;9.73;;;4.80;;
19887;SDS011;10106;51.332;12.336;2022-11-15T07:29:02;13.57;;;5.27;;
19887;SDS011;10106;51.332;12.336;2022-11-15T07:31:28;15.57;;;5.90;;
19887;SDS011;10106;51.332;12.336;2022-11-15T07:33:54;12.77;;;5.23;;
19887;SDS011;10106;51.332;12.336;2022-11-15T07:36:19;8.07;;;5.87;;
19887;SDS011;10106;51.332;12.336;2022-11-15T07:38:45;12.87;;;4.63;;
19887;SDS011;10106;51.332;12.336;2022-11-15T07:41:11;8.90;;;5.50;;
19887;SDS011;10106;51.332;12.336;2022-11-15T07:43:37;9.00;;;5.37;;
19887;SDS011;10106;51.332;12.336;2022-11-15T07:46:06;8.60;;;4.67;;
19887;SDS011;10106;51.332;12.336;2022-11-15T07:48:34;7.37;;;3.77;;
19887;SDS011;10106;51.332;12.336;2022-11-15T07:51:01;6.70;;;4.20;;
19887;SDS011;10106;51.332;12.336;2022-11-15T07:53:28;7.93;;;4.93;;
19887;SDS011;10106;51.332;12.336;2022-11-15T07:55:53;8.23;;;4.80;;
19887;SDS011;10106;51.332;12.336;2022-11-15T07:58:19;12.50;;;5.40;;
19887;SDS011;10106;51.332;12.336;2022-11-15T08:00:46;5.70;;;4.30;;
19887;SDS011;10106;51.332;12.336;2022-11-15T08:03:13;11.57;;;5.17;;
19887;SDS011;10106;51.332;12.336;2022-11-15T08:05:39;13.77;;;4.93;;
19887;SDS011;10106;51.332;12.336;2022-11-15T08:08:06;8.27;;;5.17;;
19887;SDS011;10106;51.332;12.336;2022-11-15T08:10:33;13.70;;;5.73;;
19887;SDS011;10106;51.332;12.336;2022-11-15T08:13:00;10.90;;;4.90;;
19887;SDS011;10106;51.332;12.336;2022-11-15T08:15:26;9.53;;;4.63;;
19887;SDS011;10106;51.332;12.336;2022-11-15T08:17:53;7.77;;;4.77;;
19887;SDS011;10106;51.332;12.336;2022-11-15T08:20:19;24.63;;;6.33;;
19887;SDS011;10106;51.332;12.336;2022-11-15T08:22:45;14.87;;;4.80;;
19887;SDS011;10106;51.332;12.336;2022-11-15T08:25:11;8.57;;;4.00;;
19887;SDS011;10106;51.332;12.336;2022-11-15T08:27:36;10.20;;;4.73;;
19887;SDS011;10106;51.332;12.336;2022-11-15T08:30:03;8.83;;;5.00;;
19887;SDS011;10106;51.332;12.336;2022-11-15T08:32:30;9.00;;;5.43;;
19887;SDS011;10106;51.332;12.336;2022-11-15T08:34:56;7.27;;;4.80;;
19887;SDS011;10106;51.332;12.336;2022-11-15T08:37:22;9.40;;;5.27;;
19887;SDS011;10106;51.332;12.336;2022-11-15T08:39:47;6.80;;;4.80;;
19887;SDS011;10106;51.332;12.336;2022-11-15T08:42:13;7.97;;;5.13;;
19887;SDS011;10106;51.332;12.336;2022-11-15T08:44:41;9.23;;;5.20;;
19887;SDS011;10106;51.332;12.336;2022-11-15T08:47:07;8.80;;;4.27;;
19887;SDS011;10106;51.332;12.336;2022-11-15T08:49:35;10.80;;;4.27;;
19887;SDS011;10106;51.332;12.336;2022-11-15T08:52:01;8.23;;;4.70;;
19887;SDS011;10106;51.332;12.336;2022-11-15T08:54:27;5.20;;;3.97;;
19887;SDS011;10106;51.332;12.336;2022-11-15T08:56:53;6.30;;;4.03;;
19887;SDS011;10106;51.332;12.336;2022-11-15T08:59:18;8.93;;;5.40;;
19887;SDS011;10106;51.332;12.336;2022-11-15T09:04:10;10.80;;;5.30;;
19887;SDS011;10106;51.332;12.336;2022-11-15T09:06:36;7.87;;;4.73;;
19887;SDS011;10106;51.332;12.336;2022-11-15T09:11:27;9.43;;;4.77;;
19887;SDS011;10106;51.332;12.336;2022-11-15T09:13:53;6.00;;;4.40;;
19887;SDS011;10106;51.332;12.336;2022-11-15T09:16:19;10.00;;;5.60;;
19887;SDS011;10106;51.332;12.336;2022-11-15T09:18:45;21.63;;;6.40;;
19887;SDS011;10106;51.332;12.336;2022-11-15T09:21:11;20.47;;;5.23;;
19887;SDS011;10106;51.332;12.336;2022-11-15T09:23:37;10.90;;;4.43;;
19887;SDS011;10106;51.332;12.336;2022-11-15T09:26:04;6.00;;;4.30;;
19887;SDS011;10106;51.332;12.336;2022-11-15T09:28:30;5.60;;;3.80;;
19887;SDS011;10106;51.332;12.336;2022-11-15T09:30:58;7.30;;;4.17;;
19887;SDS011;10106;51.332;12.336;2022-11-15T09:33:24;7.67;;;4.27;;
19887;SDS011;10106;51.332;12.336;2022-11-15T09:35:51;5.57;;;3.53;;
19887;SDS011;10106;51.332;12.336;2022-11-15T09:38:16;9.40;;;3.80;;
19887;SDS011;10106;51.332;12.336;2022-11-15T09:40:42;6.63;;;3.87;;
19887;SDS011;10106;51.332;12.336;2022-11-15T09:56:32;12.13;;;4.23;;
19887;SDS011;10106;51.332;12.336;2022-11-15T10:04:21;8.03;;;4.00;;
19887;SDS011;10106;51.332;12.336;2022-11-15T10:12:10;7.57;;;3.50;;
19887;SDS011;10106;51.332;12.336;2022-11-15T10:14:38;6.93;;;4.20;;
19887;SDS011;10106;51.332;12.336;2022-11-15T10:22:48;6.87;;;3.40;;
19887;SDS011;10106;51.332;12.336;2022-11-15T10:30:37;7.10;;;3.30;;
19887;SDS011;10106;51.332;12.336;2022-11-15T10:33:49;15.23;;;3.40;;
19887;SDS011;10106;51.332;12.336;2022-11-15T10:46:33;7.13;;;3.40;;
19887;SDS011;10106;51.332;12.336;2022-11-15T10:51:41;15.93;;;6.30;;
19887;SDS011;10106;51.332;12.336;2022-11-15T10:54:31;7.47;;;3.90;;
19887;SDS011;10106;51.332;12.336;2022-11-15T10:57:08;4.40;;;3.13;;
19887;SDS011;10106;51.332;12.336;2022-11-15T10:59:42;4.77;;;3.57;;
19887;SDS011;10106;51.332;12.336;2022-11-15T11:04:54;12.40;;;3.90;;
19887;SDS011;10106;51.332;12.336;2022-11-15T11:07:21;4.30;;;3.07;;
19887;SDS011;10106;51.332;12.336;2022-11-15T11:09:59;5.00;;;3.57;;
19887;SDS011;10106;51.332;12.336;2022-11-15T11:12:29;4.53;;;2.97;;
19887;SDS011;10106;51.332;12.336;2022-11-15T11:15:05;11.13;;;3.60;;
19887;SDS011;10106;51.332;12.336;2022-11-15T11:20:31;6.27;;;3.20;;
19887;SDS011;10106;51.332;12.336;2022-11-15T11:31:33;3.60;;;2.70;;
19887;SDS011;10106;51.332;12.336;2022-11-15T11:39:59;6.60;;;3.27;;
19887;SDS011;10106;51.332;12.336;2022-11-15T11:48:12;7.33;;;3.30;;
19887;SDS011;10106;51.332;12.336;2022-11-15T11:50:42;5.03;;;2.83;;
19887;SDS011;10106;51.332;12.336;2022-11-15T11:53:30;5.60;;;2.87;;
19887;SDS011;10106;51.332;12.336;2022-11-15T11:56:06;3.30;;;3.00;;
19887;SDS011;10106;51.332;12.336;2022-11-15T11:58:50;4.57;;;3.40;;
19887;SDS011;10106;51.332;12.336;2022-11-15T12:01:33;5.00;;;3.10;;
19887;SDS011;10106;51.332;12.336;2022-11-15T12:06:37;3.63;;;2.20;;
19887;SDS011;10106;51.332;12.336;2022-11-15T12:09:46;5.60;;;3.43;;
19887;SDS011;10106;51.332;12.336;2022-11-15T12:15:57;4.53;;;3.03;;
19887;SDS011;10106;51.332;12.336;2022-11-15T12:18:49;3.80;;;2.73;;
19887;SDS011;10106;51.332;12.336;2022-11-15T12:24:02;3.20;;;2.40;;
19887;SDS011;10106;51.332;12.336;2022-11-15T12:26:46;5.50;;;2.67;;
19887;SDS011;10106;51.332;12.336;2022-11-15T12:29:25;4.10;;;2.30;;
19887;SDS011;10106;51.332;12.336;2022-11-15T12:31:56;5.20;;;3.50;;
19887;SDS011;10106;51.332;12.336;2022-11-15T12:36:55;4.83;;;2.70;;
19887;SDS011;10106;51.332;12.336;2022-11-15T12:39:20;4.60;;;2.57;;
19887;SDS011;10106;51.332;12.336;2022-11-15T12:45:00;9.47;;;3.50;;
19887;SDS011;10106;51.332;12.336;2022-11-15T12:47:26;4.77;;;2.63;;
19887;SDS011;10106;51.332;12.336;2022-11-15T12:49:52;3.07;;;2.37;;
19887;SDS011;10106;51.332;12.336;2022-11-15T12:52:18;6.93;;;2.53;;
19887;SDS011;10106;51.332;12.336;2022-11-15T12:54:49;7.23;;;2.70;;
19887;SDS011;10106;51.332;12.336;2022-11-15T13:00:00;6.43;;;2.10;;
19887;SDS011;10106;51.332;12.336;2022-11-15T13:02:47;2.73;;;1.83;;
19887;SDS011;10106;51.332;12.336;2022-11-15T13:17:48;2.50;;;1.93;;
19887;SDS011;10106;51.332;12.336;2022-11-15T13:28:47;6.60;;;2.23;;
19887;SDS011;10106;51.332;12.336;2022-11-15T13:30:58;10.33;;;2.73;;
19887;SDS011;10106;51.332;12.336;2022-11-15T13:33:36;5.30;;;2.23;;
19887;SDS011;10106;51.332;12.336;2022-11-15T13:36:23;5.53;;;2.00;;
19887;SDS011;10106;51.332;12.336;2022-11-15T13:41:26;4.20;;;2.50;;
19887;SDS011;10106;51.332;12.336;2022-11-15T13:43:55;10.00;;;2.93;;
19887;SDS011;10106;51.332;12.336;2022-11-15T13:46:24;3.40;;;2.33;;
19887;SDS011;10106;51.332;12.336;2022-11-15T13:51:38;4.80;;;2.13;;
19887;SDS011;10106;51.332;12.336;2022-11-15T13:57:02;3.00;;;2.57;;
19887;SDS011;10106;51.332;12.336;2022-11-15T13:59:34;3.37;;;2.50;;
19887;SDS011;10106;51.332;12.336;2022-11-15T14:02:13;36.83;;;14.03;;
19887;SDS011;10106;51.332;12.336;2022-11-15T14:04:46;9.17;;;3.87;;
19887;SDS011;10106;51.332;12.336;2022-11-15T14:07:35;5.03;;;2.80;;
19887;SDS011;10106;51.332;12.336;2022-11-15T14:10:17;5.23;;;2.60;;
19887;SDS011;10106;51.332;12.336;2022-11-15T14:13:02;4.67;;;2.50;;
19887;SDS011;10106;51.332;12.336;2022-11-15T14:15:36;8.00;;;2.67;;
19887;SDS011;10106;51.332;12.336;2022-11-15T14:18:03;2.40;;;2.20;;
19887;SDS011;10106;51.332;12.336;2022-11-15T14:20:34;4.60;;;2.20;;
19887;SDS011;10106;51.332;12.336;2022-11-15T14:23:25;5.43;;;2.50;;
19887;SDS011;10106;51.332;12.336;2022-11-15T14:25:55;2.70;;;2.50;;
19887;SDS011;10106;51.332;12.336;2022-11-15T14:30:48;4.43;;;2.60;;
19887;SDS011;10106;51.332;12.336;2022-11-15T14:35:57;8.13;;;2.87;;
19887;SDS011;10106;51.332;12.336;2022-11-15T14:38:27;5.30;;;2.80;;
19887;SDS011;10106;51.332;12.336;2022-11-15T14:40:52;3.90;;;2.93;;
19887;SDS011;10106;51.332;12.336;2022-11-15T14:43:19;2.67;;;2.40;;
19887;SDS011;10106;51.332;12.336;2022-11-15T14:45:45;2.53;;;2.33;;
19887;SDS011;10106;51.332;12.336;2022-11-15T14:48:11;4.47;;;2.63;;
19887;SDS011;10106;51.332;12.336;2022-11-15T14:50:37;2.80;;;2.33;;
19887;SDS011;10106;51.332;12.336;2022-11-15T14:53:03;4.20;;;2.57;;
19887;SDS011;10106;51.332;12.336;2022-11-15T14:55:30;6.60;;;3.07;;
19887;SDS011;10106;51.332;12.336;2022-11-15T14:58:00;7.93;;;2.93;;
19887;SDS011;10106;51.332;12.336;2022-11-15T15:00:28;9.93;;;3.50;;
19887;SDS011;10106;51.332;12.336;2022-11-15T15:02:54;5.33;;;3.43;;
19887;SDS011;10106;51.332;12.336;2022-11-15T15:05:37;4.67;;;2.77;;
19887;SDS011;10106;51.332;12.336;2022-11-15T15:08:05;7.83;;;3.50;;
19887;SDS011;10106;51.332;12.336;2022-11-15T15:10:32;6.23;;;3.27;;
19887;SDS011;10106;51.332;12.336;2022-11-15T15:13:00;6.90;;;3.67;;
19887;SDS011;10106;51.332;12.336;2022-11-15T15:15:29;6.60;;;3.10;;
19887;SDS011;10106;51.332;12.336;2022-11-15T15:17:58;3.27;;;2.80;;
19887;SDS011;10106;51.332;12.336;2022-11-15T15:20:26;7.73;;;3.00;;
19887;SDS011;10106;51.332;12.336;2022-11-15T15:22:54;8.73;;;3.50;;
19887;SDS011;10106;51.332;12.336;2022-11-15T15:25:21;5.87;;;3.57;;
19887;SDS011;10106;51.332;12.336;2022-11-15T15:27:47;6.23;;;4.07;;
19887;SDS011;10106;51.332;12.336;2022-11-15T15:30:13;5.33;;;3.60;;
19887;SDS011;10106;51.332;12.336;2022-11-15T15:32:39;8.67;;;3.80;;
19887;SDS011;10106;51.332;12.336;2022-11-15T15:35:05;5.80;;;3.33;;
19887;SDS011;10106;51.332;12.336;2022-11-15T15:37:31;13.27;;;3.60;;
19887;SDS011;10106;51.332;12.336;2022-11-15T15:39:58;5.70;;;3.13;;
19887;SDS011;10106;51.332;12.336;2022-11-15T15:42:24;6.40;;;3.50;;
19887;SDS011;10106;51.332;12.336;2022-11-15T15:44:50;8.33;;;3.90;;
19887;SDS011;10106;51.332;12.336;2022-11-15T15:47:17;3.90;;;3.10;;
19887;SDS011;10106;51.332;12.336;2022-11-15T15:49:45;4.67;;;3.67;;
19887;SDS011;10106;51.332;12.336;2022-11-15T15:52:11;11.23;;;4.00;;
19887;SDS011;10106;51.332;12.336;2022-11-15T15:54:37;7.03;;;3.50;;
19887;SDS011;10106;51.332;12.336;2022-11-15T15:57:03;3.83;;;3.13;;
19887;SDS011;10106;51.332;12.336;2022-11-15T15:59:30;7.07;;;3.63;;
19887;SDS011;10106;51.332;12.336;2022-11-15T16:01:56;11.23;;;4.53;;
19887;SDS011;10106;51.332;12.336;2022-11-15T16:04:21;14.70;;;5.50;;
19887;SDS011;10106;51.332;12.336;2022-11-15T16:06:47;7.20;;;4.53;;
19887;SDS011;10106;51.332;12.336;2022-11-15T16:09:15;6.80;;;4.70;;
19887;SDS011;10106;51.332;12.336;2022-11-15T16:11:43;6.97;;;4.40;;
19887;SDS011;10106;51.332;12.336;2022-11-15T16:14:10;5.33;;;3.80;;
19887;SDS011;10106;51.332;12.336;2022-11-15T16:16:36;12.97;;;6.47;;
19887;SDS011;10106;51.332;12.336;2022-11-15T16:19:02;17.67;;;5.77;;
19887;SDS011;10106;51.332;12.336;2022-11-15T16:21:29;9.10;;;3.97;;
19887;SDS011;10106;51.332;12.336;2022-11-15T16:23:55;6.77;;;3.53;;
19887;SDS011;10106;51.332;12.336;2022-11-15T16:26:21;5.97;;;4.33;;
19887;SDS011;10106;51.332;12.336;2022-11-15T16:28:52;7.37;;;4.40;;
19887;SDS011;10106;51.332;12.336;2022-11-15T16:31:18;9.27;;;4.60;;
19887;SDS011;10106;51.332;12.336;2022-11-15T16:33:47;7.60;;;4.47;;
19887;SDS011;10106;51.332;12.336;2022-11-15T16:36:18;7.73;;;4.40;;
19887;SDS011;10106;51.332;12.336;2022-11-15T16:38:46;9.67;;;4.90;;
19887;SDS011;10106;51.332;12.336;2022-11-15T16:41:12;12.57;;;6.27;;
19887;SDS011;10106;51.332;12.336;2022-11-15T16:43:39;19.13;;;10.83;;
19887;SDS011;10106;51.332;12.336;2022-11-15T16:46:12;20.90;;;10.83;;
19887;SDS011;10106;51.332;12.336;2022-11-15T16:48:38;17.70;;;10.03;;
19887;SDS011;10106;51.332;12.336;2022-11-15T16:51:04;23.67;;;13.77;;
19887;SDS011;10106;51.332;12.336;2022-11-15T16:53:31;31.77;;;20.37;;
19887;SDS011;10106;51.332;12.336;2022-11-15T16:55:57;43.03;;;25.00;;
19887;SDS011;10106;51.332;12.336;2022-11-15T16:58:23;42.07;;;23.80;;
19887;SDS011;10106;51.332;12.336;2022-11-15T17:00:50;23.58;;;13.43;;
19887;SDS011;10106;51.332;12.336;2022-11-15T17:03:16;10.77;;;6.87;;
19887;SDS011;10106;51.332;12.336;2022-11-15T17:05:42;19.57;;;8.40;;
19887;SDS011;10106;51.332;12.336;2022-11-15T17:08:08;10.33;;;6.70;;
19887;SDS011;10106;51.332;12.336;2022-11-15T17:10:37;18.03;;;8.27;;
19887;SDS011;10106;51.332;12.336;2022-11-15T17:13:03;14.20;;;6.63;;
19887;SDS011;10106;51.332;12.336;2022-11-15T17:15:29;14.17;;;7.50;;
19887;SDS011;10106;51.332;12.336;2022-11-15T17:17:56;14.77;;;7.70;;
19887;SDS011;10106;51.332;12.336;2022-11-15T17:20:22;21.63;;;10.90;;
19887;SDS011;10106;51.332;12.336;2022-11-15T17:22:50;17.93;;;8.37;;
19887;SDS011;10106;51.332;12.336;2022-11-15T17:25:17;14.57;;;9.10;;
19887;SDS011;10106;51.332;12.336;2022-11-15T17:27:43;11.90;;;9.10;;
19887;SDS011;10106;51.332;12.336;2022-11-15T17:30:11;18.53;;;11.20;;
19887;SDS011;10106;51.332;12.336;2022-11-15T17:32:39;17.47;;;10.07;;
19887;SDS011;10106;51.332;12.336;2022-11-15T17:35:05;26.83;;;15.10;;
19887;SDS011;10106;51.332;12.336;2022-11-15T17:37:32;24.80;;;13.30;;